sensor_id;sensor_type;location;lat;lon;timestamp;temperature;humidity
4596;DHT22;2310;49.978;8.742;2023-03-14T00:03:01;12.30;99.90
4596;DHT22;2310;49.978;8.742;2023-03-14T00:07:03;12.20;99.90
4596;DHT22;2310;49.978;8.742;2023-03-14T00:11:12;12.30;99.90
4596;DHT22;2310;49.978;8.742;2023-03-14T00:15:10;12.20;99.90
4596;DHT22;2310;49.978;8.742;2023-03-14T00:19:12;12.20;99.90
4596;DHT22;2310;49.978;8.742;2023-03-14T00:23:13;12.20;99.90
4596;DHT22;2310;49.978;8.742;2023-03-14T00:27:14;12.20;99.90
4596;DHT22;2310;49.978;8.742;2023-03-14T00:31:15;12.30;99.90
4596;DHT22;2310;49.978;8.742;2023-03-14T00:35:17;12.20;99.90
4596;DHT22;2310;49.978;8.742;2023-03-14T00:39:18;12.20;99.90
4596;DHT22;2310;49.978;8.742;2023-03-14T00:43:20;12.20;99.90
4596;DHT22;2310;49.978;8.742;2023-03-14T00:47:24;12.20;99.90
4596;DHT22;2310;49.978;8.742;2023-03-14T00:51:25;12.30;99.90
4596;DHT22;2310;49.978;8.742;2023-03-14T00:55:26;12.30;99.90
4596;DHT22;2310;49.978;8.742;2023-03-14T00:59:27;12.40;99.90
4596;DHT22;2310;49.978;8.742;2023-03-14T01:03:29;12.40;99.90
4596;DHT22;2310;49.978;8.742;2023-03-14T01:07:30;12.30;99.90
4596;DHT22;2310;49.978;8.742;2023-03-14T01:11:33;12.30;99.90
4596;DHT22;2310;49.978;8.742;2023-03-14T01:15:35;12.30;99.90
4596;DHT22;2310;49.978;8.742;2023-03-14T01:19:37;12.30;99.90
4596;DHT22;2310;49.978;8.742;2023-03-14T01:23:38;12.20;99.90
4596;DHT22;2310;49.978;8.742;2023-03-14T01:27:39;12.30;99.90
4596;DHT22;2310;49.978;8.742;2023-03-14T01:31:40;12.30;99.90
4596;DHT22;2310;49.978;8.742;2023-03-14T01:35:41;12.30;99.90
4596;DHT22;2310;49.978;8.742;2023-03-14T01:39:43;12.20;99.90
4596;DHT22;2310;49.978;8.742;2023-03-14T01:43:44;12.20;99.90
4596;DHT22;2310;49.978;8.742;2023-03-14T01:47:45;12.20;99.90
4596;DHT22;2310;49.978;8.742;2023-03-14T01:55:52;12.20;99.90
4596;DHT22;2310;49.978;8.742;2023-03-14T01:59:58;12.20;99.90
4596;DHT22;2310;49.978;8.742;2023-03-14T02:04:01;12.30;99.90
4596;DHT22;2310;49.978;8.742;2023-03-14T02:08:06;12.30;99.90
4596;DHT22;2310;49.978;8.742;2023-03-14T02:12:08;12.20;99.90
4596;DHT22;2310;49.978;8.742;2023-03-14T02:16:10;12.30;99.90
4596;DHT22;2310;49.978;8.742;2023-03-14T02:20:38;12.40;99.90
4596;DHT22;2310;49.978;8.742;2023-03-14T02:24:58;12.40;99.90
4596;DHT22;2310;49.978;8.742;2023-03-14T02:28:58;12.40;99.90
4596;DHT22;2310;49.978;8.742;2023-03-14T02:33:05;12.20;99.90
4596;DHT22;2310;49.978;8.742;2023-03-14T02:37:07;12.30;99.90
4596;DHT22;2310;49.978;8.742;2023-03-14T02:41:09;12.30;99.90
4596;DHT22;2310;49.978;8.742;2023-03-14T02:49:16;12.40;99.90
4596;DHT22;2310;49.978;8.742;2023-03-14T02:53:28;12.30;99.90
4596;DHT22;2310;49.978;8.742;2023-03-14T02:57:26;12.30;99.90
4596;DHT22;2310;49.978;8.742;2023-03-14T03:01:27;12.40;99.90
4596;DHT22;2310;49.978;8.742;2023-03-14T03:05:29;12.40;99.90
4596;DHT22;2310;49.978;8.742;2023-03-14T03:09:30;12.30;99.90
4596;DHT22;2310;49.978;8.742;2023-03-14T03:13:31;12.30;99.90
4596;DHT22;2310;49.978;8.742;2023-03-14T03:17:32;12.20;99.90
4596;DHT22;2310;49.978;8.742;2023-03-14T03:21:33;12.40;99.90
4596;DHT22;2310;49.978;8.742;2023-03-14T03:25:35;12.30;99.90
4596;DHT22;2310;49.978;8.742;2023-03-14T03:29:36;12.20;99.90
4596;DHT22;2310;49.978;8.742;2023-03-14T03:33:38;12.20;99.90
4596;DHT22;2310;49.978;8.742;2023-03-14T03:37:39;12.10;99.90
4596;DHT22;2310;49.978;8.742;2023-03-14T03:41:40;12.20;99.90
4596;DHT22;2310;49.978;8.742;2023-03-14T03:45:42;12.20;99.90
4596;DHT22;2310;49.978;8.742;2023-03-14T03:49:43;12.20;99.90
4596;DHT22;2310;49.978;8.742;2023-03-14T03:53:44;12.10;99.90
4596;DHT22;2310;49.978;8.742;2023-03-14T03:57:45;12.20;99.90
4596;DHT22;2310;49.978;8.742;2023-03-14T04:01:47;12.20;99.90
4596;DHT22;2310;49.978;8.742;2023-03-14T04:05:59;12.20;99.90
4596;DHT22;2310;49.978;8.742;2023-03-14T04:10:00;12.20;99.90
4596;DHT22;2310;49.978;8.742;2023-03-14T04:14:02;12.20;99.90
4596;DHT22;2310;49.978;8.742;2023-03-14T04:18:03;12.20;99.90
4596;DHT22;2310;49.978;8.742;2023-03-14T04:22:04;12.10;99.90
4596;DHT22;2310;49.978;8.742;2023-03-14T04:26:06;12.20;99.90
4596;DHT22;2310;49.978;8.742;2023-03-14T04:30:09;12.20;99.90
4596;DHT22;2310;49.978;8.742;2023-03-14T04:34:10;12.10;99.90
4596;DHT22;2310;49.978;8.742;2023-03-14T04:38:12;12.10;99.90
4596;DHT22;2310;49.978;8.742;2023-03-14T04:42:14;12.00;99.90
4596;DHT22;2310;49.978;8.742;2023-03-14T04:46:15;12.10;99.90
4596;DHT22;2310;49.978;8.742;2023-03-14T04:50:16;12.20;99.90
4596;DHT22;2310;49.978;8.742;2023-03-14T04:54:18;12.20;99.90
4596;DHT22;2310;49.978;8.742;2023-03-14T04:58:19;12.30;99.90
4596;DHT22;2310;49.978;8.742;2023-03-14T05:02:20;12.20;99.90
4596;DHT22;2310;49.978;8.742;2023-03-14T05:06:21;12.20;99.90
4596;DHT22;2310;49.978;8.742;2023-03-14T05:10:23;12.20;99.90
4596;DHT22;2310;49.978;8.742;2023-03-14T05:14:24;12.20;99.90
4596;DHT22;2310;49.978;8.742;2023-03-14T05:18:25;12.30;99.90
4596;DHT22;2310;49.978;8.742;2023-03-14T05:22:26;12.30;99.90
4596;DHT22;2310;49.978;8.742;2023-03-14T05:26:28;12.30;99.90
4596;DHT22;2310;49.978;8.742;2023-03-14T05:30:29;12.30;99.90
4596;DHT22;2310;49.978;8.742;2023-03-14T05:34:31;12.30;99.90
4596;DHT22;2310;49.978;8.742;2023-03-14T05:38:33;12.30;99.90
4596;DHT22;2310;49.978;8.742;2023-03-14T05:42:34;12.30;99.90
4596;DHT22;2310;49.978;8.742;2023-03-14T05:46:35;12.40;99.90
4596;DHT22;2310;49.978;8.742;2023-03-14T05:50:36;12.40;99.90
4596;DHT22;2310;49.978;8.742;2023-03-14T05:54:38;12.50;99.90
4596;DHT22;2310;49.978;8.742;2023-03-14T05:58:40;12.50;99.90
4596;DHT22;2310;49.978;8.742;2023-03-14T06:02:41;12.50;99.90
4596;DHT22;2310;49.978;8.742;2023-03-14T06:06:42;12.40;99.90
4596;DHT22;2310;49.978;8.742;2023-03-14T06:10:43;12.50;99.90
4596;DHT22;2310;49.978;8.742;2023-03-14T06:14:44;12.30;99.90
4596;DHT22;2310;49.978;8.742;2023-03-14T06:18:45;12.20;99.90
4596;DHT22;2310;49.978;8.742;2023-03-14T06:22:47;12.20;99.90
4596;DHT22;2310;49.978;8.742;2023-03-14T06:26:48;12.10;99.90
4596;DHT22;2310;49.978;8.742;2023-03-14T06:30:49;12.10;99.90
4596;DHT22;2310;49.978;8.742;2023-03-14T06:34:51;12.10;99.90
4596;DHT22;2310;49.978;8.742;2023-03-14T06:38:52;12.20;99.90
4596;DHT22;2310;49.978;8.742;2023-03-14T06:42:53;12.20;99.90
4596;DHT22;2310;49.978;8.742;2023-03-14T06:46:54;12.20;99.90
4596;DHT22;2310;49.978;8.742;2023-03-14T06:50:55;12.30;99.90
4596;DHT22;2310;49.978;8.742;2023-03-14T06:54:56;12.30;99.90
4596;DHT22;2310;49.978;8.742;2023-03-14T06:58:57;12.20;99.90
4596;DHT22;2310;49.978;8.742;2023-03-14T07:02:59;12.30;99.90
4596;DHT22;2310;49.978;8.742;2023-03-14T07:07:00;12.30;99.90
4596;DHT22;2310;49.978;8.742;2023-03-14T07:11:01;12.30;99.90
4596;DHT22;2310;49.978;8.742;2023-03-14T07:15:02;12.30;99.90
4596;DHT22;2310;49.978;8.742;2023-03-14T07:19:05;12.30;99.90
4596;DHT22;2310;49.978;8.742;2023-03-14T07:23:07;12.30;99.90
4596;DHT22;2310;49.978;8.742;2023-03-14T07:27:08;12.30;99.90
4596;DHT22;2310;49.978;8.742;2023-03-14T07:31:11;12.20;99.90
4596;DHT22;2310;49.978;8.742;2023-03-14T07:35:12;12.40;99.90
4596;DHT22;2310;49.978;8.742;2023-03-14T07:39:13;12.40;99.90
4596;DHT22;2310;49.978;8.742;2023-03-14T07:43:15;12.50;99.90
4596;DHT22;2310;49.978;8.742;2023-03-14T07:47:16;12.60;99.90
4596;DHT22;2310;49.978;8.742;2023-03-14T07:51:17;12.50;99.90
4596;DHT22;2310;49.978;8.742;2023-03-14T07:55:18;12.50;99.90
4596;DHT22;2310;49.978;8.742;2023-03-14T07:59:19;12.70;99.90
4596;DHT22;2310;49.978;8.742;2023-03-14T08:03:21;12.80;99.90
4596;DHT22;2310;49.978;8.742;2023-03-14T08:07:22;13.00;99.90
4596;DHT22;2310;49.978;8.742;2023-03-14T08:11:23;13.20;99.90
4596;DHT22;2310;49.978;8.742;2023-03-14T08:15:25;13.20;99.90
4596;DHT22;2310;49.978;8.742;2023-03-14T08:19:27;13.00;99.90
4596;DHT22;2310;49.978;8.742;2023-03-14T08:23:28;12.90;99.90
4596;DHT22;2310;49.978;8.742;2023-03-14T08:27:29;13.00;99.90
4596;DHT22;2310;49.978;8.742;2023-03-14T08:31:30;13.00;99.90
4596;DHT22;2310;49.978;8.742;2023-03-14T08:35:31;12.90;99.90
4596;DHT22;2310;49.978;8.742;2023-03-14T08:39:33;12.90;99.90
4596;DHT22;2310;49.978;8.742;2023-03-14T08:43:34;13.30;99.90
4596;DHT22;2310;49.978;8.742;2023-03-14T08:47:35;13.20;99.90
4596;DHT22;2310;49.978;8.742;2023-03-14T08:51:37;13.30;99.90
4596;DHT22;2310;49.978;8.742;2023-03-14T08:55:38;13.20;99.90
4596;DHT22;2310;49.978;8.742;2023-03-14T08:59:39;13.40;99.90
4596;DHT22;2310;49.978;8.742;2023-03-14T09:03:40;13.60;99.90
4596;DHT22;2310;49.978;8.742;2023-03-14T09:07:41;13.80;99.90
4596;DHT22;2310;49.978;8.742;2023-03-14T09:11:42;13.90;99.90
4596;DHT22;2310;49.978;8.742;2023-03-14T09:15:44;14.20;99.90
4596;DHT22;2310;49.978;8.742;2023-03-14T09:19:45;14.70;99.90
4596;DHT22;2310;49.978;8.742;2023-03-14T09:23:46;15.40;99.90
4596;DHT22;2310;49.978;8.742;2023-03-14T09:27:47;15.50;99.90
4596;DHT22;2310;49.978;8.742;2023-03-14T09:31:48;15.50;99.90
4596;DHT22;2310;49.978;8.742;2023-03-14T09:35:50;15.30;99.90
4596;DHT22;2310;49.978;8.742;2023-03-14T09:39:51;15.20;99.90
4596;DHT22;2310;49.978;8.742;2023-03-14T09:44:02;15.10;99.90
4596;DHT22;2310;49.978;8.742;2023-03-14T09:48:04;15.10;99.90
4596;DHT22;2310;49.978;8.742;2023-03-14T09:52:11;15.00;99.90
4596;DHT22;2310;49.978;8.742;2023-03-14T09:56:14;14.80;99.90
4596;DHT22;2310;49.978;8.742;2023-03-14T10:00:23;14.60;99.90
4596;DHT22;2310;49.978;8.742;2023-03-14T10:04:22;14.40;99.90
4596;DHT22;2310;49.978;8.742;2023-03-14T10:08:26;14.40;99.90
4596;DHT22;2310;49.978;8.742;2023-03-14T10:12:35;14.20;99.90
4596;DHT22;2310;49.978;8.742;2023-03-14T10:16:43;14.20;99.90
4596;DHT22;2310;49.978;8.742;2023-03-14T10:20:47;14.20;99.90
4596;DHT22;2310;49.978;8.742;2023-03-14T10:24:55;14.10;99.90
4596;DHT22;2310;49.978;8.742;2023-03-14T10:29:03;14.00;99.90
4596;DHT22;2310;49.978;8.742;2023-03-14T10:33:15;13.90;99.90
4596;DHT22;2310;49.978;8.742;2023-03-14T10:37:22;13.80;99.90
4596;DHT22;2310;49.978;8.742;2023-03-14T10:41:30;13.80;99.90
4596;DHT22;2310;49.978;8.742;2023-03-14T10:45:38;13.70;99.90
4596;DHT22;2310;49.978;8.742;2023-03-14T10:49:40;13.70;99.90
4596;DHT22;2310;49.978;8.742;2023-03-14T10:57:46;13.60;99.90
4596;DHT22;2310;49.978;8.742;2023-03-14T11:01:56;13.50;99.90
4596;DHT22;2310;49.978;8.742;2023-03-14T11:06:10;13.50;99.90
4596;DHT22;2310;49.978;8.742;2023-03-14T11:10:33;13.50;99.90
4596;DHT22;2310;49.978;8.742;2023-03-14T11:14:38;13.50;99.90
4596;DHT22;2310;49.978;8.742;2023-03-14T11:23:22;13.30;99.90
4596;DHT22;2310;49.978;8.742;2023-03-14T11:31:40;13.20;99.90
4596;DHT22;2310;49.978;8.742;2023-03-14T11:40:08;13.10;99.90
4596;DHT22;2310;49.978;8.742;2023-03-14T11:44:22;13.20;99.90
4596;DHT22;2310;49.978;8.742;2023-03-14T11:52:44;13.00;99.90
4596;DHT22;2310;49.978;8.742;2023-03-14T11:56:50;13.10;99.90
4596;DHT22;2310;49.978;8.742;2023-03-14T12:00:53;13.00;99.90
4596;DHT22;2310;49.978;8.742;2023-03-14T12:09:10;13.00;99.90
4596;DHT22;2310;49.978;8.742;2023-03-14T12:13:13;12.90;99.90
4596;DHT22;2310;49.978;8.742;2023-03-14T12:17:41;13.00;99.90
4596;DHT22;2310;49.978;8.742;2023-03-14T12:21:27;12.90;99.90
4596;DHT22;2310;49.978;8.742;2023-03-14T12:25:30;12.80;99.90
4596;DHT22;2310;49.978;8.742;2023-03-14T12:29:32;12.00;99.90
4596;DHT22;2310;49.978;8.742;2023-03-14T12:33:33;11.60;99.90
4596;DHT22;2310;49.978;8.742;2023-03-14T12:37:42;11.20;99.90
4596;DHT22;2310;49.978;8.742;2023-03-14T12:41:46;11.10;99.90
4596;DHT22;2310;49.978;8.742;2023-03-14T12:50:18;11.20;99.90
4596;DHT22;2310;49.978;8.742;2023-03-14T12:54:40;11.30;99.90
4596;DHT22;2310;49.978;8.742;2023-03-14T12:59:01;11.40;99.90
4596;DHT22;2310;49.978;8.742;2023-03-14T13:03:13;11.70;99.90
4596;DHT22;2310;49.978;8.742;2023-03-14T13:11:27;12.40;99.90
4596;DHT22;2310;49.978;8.742;2023-03-14T13:15:43;12.50;99.90
4596;DHT22;2310;49.978;8.742;2023-03-14T13:19:37;12.50;99.90
4596;DHT22;2310;49.978;8.742;2023-03-14T13:23:39;12.30;99.90
4596;DHT22;2310;49.978;8.742;2023-03-14T13:27:41;12.20;99.90
4596;DHT22;2310;49.978;8.742;2023-03-14T13:31:47;12.00;99.90
4596;DHT22;2310;49.978;8.742;2023-03-14T13:35:58;11.70;99.90
4596;DHT22;2310;49.978;8.742;2023-03-14T13:40:00;11.30;99.90
4596;DHT22;2310;49.978;8.742;2023-03-14T13:44:10;11.30;99.90
4596;DHT22;2310;49.978;8.742;2023-03-14T13:48:12;11.10;99.90
4596;DHT22;2310;49.978;8.742;2023-03-14T13:52:21;10.90;99.90
4596;DHT22;2310;49.978;8.742;2023-03-14T13:56:26;10.90;99.90
4596;DHT22;2310;49.978;8.742;2023-03-14T14:00:28;11.20;99.90
4596;DHT22;2310;49.978;8.742;2023-03-14T14:04:32;11.50;99.90
4596;DHT22;2310;49.978;8.742;2023-03-14T14:08:34;11.70;99.90
4596;DHT22;2310;49.978;8.742;2023-03-14T14:12:40;11.80;99.90
4596;DHT22;2310;49.978;8.742;2023-03-14T14:16:44;11.70;99.90
4596;DHT22;2310;49.978;8.742;2023-03-14T14:20:47;11.50;99.90
4596;DHT22;2310;49.978;8.742;2023-03-14T14:24:48;11.20;99.90
4596;DHT22;2310;49.978;8.742;2023-03-14T14:29:03;11.20;99.90
4596;DHT22;2310;49.978;8.742;2023-03-14T14:33:17;11.10;99.90
4596;DHT22;2310;49.978;8.742;2023-03-14T14:37:24;10.90;99.90
4596;DHT22;2310;49.978;8.742;2023-03-14T14:41:31;10.70;99.90
4596;DHT22;2310;49.978;8.742;2023-03-14T14:45:33;10.70;99.90
4596;DHT22;2310;49.978;8.742;2023-03-14T14:49:35;10.30;99.90
4596;DHT22;2310;49.978;8.742;2023-03-14T14:53:39;10.10;99.90
4596;DHT22;2310;49.978;8.742;2023-03-14T14:57:48;10.00;99.90
4596;DHT22;2310;49.978;8.742;2023-03-14T15:01:46;9.80;99.90
4596;DHT22;2310;49.978;8.742;2023-03-14T15:05:48;9.50;99.90
4596;DHT22;2310;49.978;8.742;2023-03-14T15:09:49;9.30;99.90
4596;DHT22;2310;49.978;8.742;2023-03-14T15:13:51;9.00;99.90
4596;DHT22;2310;49.978;8.742;2023-03-14T15:17:53;8.90;99.90
4596;DHT22;2310;49.978;8.742;2023-03-14T15:21:54;9.20;99.90
4596;DHT22;2310;49.978;8.742;2023-03-14T15:25:55;9.10;99.90
4596;DHT22;2310;49.978;8.742;2023-03-14T15:29:57;9.00;99.90
4596;DHT22;2310;49.978;8.742;2023-03-14T15:33:59;9.00;99.90
4596;DHT22;2310;49.978;8.742;2023-03-14T15:38:01;9.00;99.90
4596;DHT22;2310;49.978;8.742;2023-03-14T15:42:02;9.00;99.90
4596;DHT22;2310;49.978;8.742;2023-03-14T15:46:04;9.10;99.90
4596;DHT22;2310;49.978;8.742;2023-03-14T15:50:09;9.10;99.90
4596;DHT22;2310;49.978;8.742;2023-03-14T15:54:10;9.20;99.90
4596;DHT22;2310;49.978;8.742;2023-03-14T15:58:15;9.10;99.90
4596;DHT22;2310;49.978;8.742;2023-03-14T16:02:16;9.40;99.90
4596;DHT22;2310;49.978;8.742;2023-03-14T16:06:18;9.50;99.90
4596;DHT22;2310;49.978;8.742;2023-03-14T16:10:20;9.50;99.90
4596;DHT22;2310;49.978;8.742;2023-03-14T16:14:21;9.40;99.90
4596;DHT22;2310;49.978;8.742;2023-03-14T16:18:30;9.60;99.90
4596;DHT22;2310;49.978;8.742;2023-03-14T16:22:31;9.40;99.90
4596;DHT22;2310;49.978;8.742;2023-03-14T16:26:34;8.90;99.90
4596;DHT22;2310;49.978;8.742;2023-03-14T16:30:37;8.40;99.90
4596;DHT22;2310;49.978;8.742;2023-03-14T16:34:38;8.10;99.90
4596;DHT22;2310;49.978;8.742;2023-03-14T16:38:42;8.00;99.90
4596;DHT22;2310;49.978;8.742;2023-03-14T16:42:44;8.10;99.90
4596;DHT22;2310;49.978;8.742;2023-03-14T16:46:47;8.30;99.90
4596;DHT22;2310;49.978;8.742;2023-03-14T16:50:49;8.10;99.90
4596;DHT22;2310;49.978;8.742;2023-03-14T16:54:51;8.00;99.90
4596;DHT22;2310;49.978;8.742;2023-03-14T16:58:52;8.20;99.90
4596;DHT22;2310;49.978;8.742;2023-03-14T17:02:53;8.20;99.90
4596;DHT22;2310;49.978;8.742;2023-03-14T17:06:54;8.30;99.90
4596;DHT22;2310;49.978;8.742;2023-03-14T17:10:55;8.20;99.90
4596;DHT22;2310;49.978;8.742;2023-03-14T17:14:59;8.30;99.90
4596;DHT22;2310;49.978;8.742;2023-03-14T17:19:00;8.10;99.90
4596;DHT22;2310;49.978;8.742;2023-03-14T17:23:01;8.00;99.90
4596;DHT22;2310;49.978;8.742;2023-03-14T17:27:02;7.90;99.90
4596;DHT22;2310;49.978;8.742;2023-03-14T17:31:12;8.10;99.90
4596;DHT22;2310;49.978;8.742;2023-03-14T17:35:14;7.90;99.90
4596;DHT22;2310;49.978;8.742;2023-03-14T17:39:15;7.90;99.90
4596;DHT22;2310;49.978;8.742;2023-03-14T17:43:16;7.90;99.90
4596;DHT22;2310;49.978;8.742;2023-03-14T17:47:18;7.70;99.90
4596;DHT22;2310;49.978;8.742;2023-03-14T17:51:20;7.80;99.90
4596;DHT22;2310;49.978;8.742;2023-03-14T17:55:21;7.90;99.90
4596;DHT22;2310;49.978;8.742;2023-03-14T17:59:22;8.10;99.90
4596;DHT22;2310;49.978;8.742;2023-03-14T18:03:23;8.10;99.90
4596;DHT22;2310;49.978;8.742;2023-03-14T18:07:24;8.20;99.90
4596;DHT22;2310;49.978;8.742;2023-03-14T18:11:26;8.30;99.90
4596;DHT22;2310;49.978;8.742;2023-03-14T18:15:27;8.30;99.90
4596;DHT22;2310;49.978;8.742;2023-03-14T18:19:29;8.10;99.90
4596;DHT22;2310;49.978;8.742;2023-03-14T18:23:30;8.20;99.90
4596;DHT22;2310;49.978;8.742;2023-03-14T18:27:31;8.00;99.90
4596;DHT22;2310;49.978;8.742;2023-03-14T18:31:32;7.90;99.90
4596;DHT22;2310;49.978;8.742;2023-03-14T18:35:37;8.00;99.90
4596;DHT22;2310;49.978;8.742;2023-03-14T18:39:39;7.90;99.90
4596;DHT22;2310;49.978;8.742;2023-03-14T18:43:41;7.70;99.90
4596;DHT22;2310;49.978;8.742;2023-03-14T18:47:42;7.50;99.90
4596;DHT22;2310;49.978;8.742;2023-03-14T18:51:44;7.40;99.90
4596;DHT22;2310;49.978;8.742;2023-03-14T18:55:45;7.20;99.90
4596;DHT22;2310;49.978;8.742;2023-03-14T18:59:46;7.20;99.90
4596;DHT22;2310;49.978;8.742;2023-03-14T19:03:47;7.40;99.90
4596;DHT22;2310;49.978;8.742;2023-03-14T19:07:48;7.60;99.90
4596;DHT22;2310;49.978;8.742;2023-03-14T19:11:50;7.80;99.90
4596;DHT22;2310;49.978;8.742;2023-03-14T19:15:51;8.00;99.90
4596;DHT22;2310;49.978;8.742;2023-03-14T19:19:52;8.00;99.90
4596;DHT22;2310;49.978;8.742;2023-03-14T19:23:53;7.80;99.90
4596;DHT22;2310;49.978;8.742;2023-03-14T19:27:55;7.70;99.90
4596;DHT22;2310;49.978;8.742;2023-03-14T19:31:56;7.50;99.90
4596;DHT22;2310;49.978;8.742;2023-03-14T19:35:57;7.70;99.90
4596;DHT22;2310;49.978;8.742;2023-03-14T19:39:59;7.70;99.90
4596;DHT22;2310;49.978;8.742;2023-03-14T19:44:00;7.80;99.90
4596;DHT22;2310;49.978;8.742;2023-03-14T19:48:03;7.50;99.90
4596;DHT22;2310;49.978;8.742;2023-03-14T19:52:05;7.40;99.90
4596;DHT22;2310;49.978;8.742;2023-03-14T19:56:07;7.70;99.90
4596;DHT22;2310;49.978;8.742;2023-03-14T20:00:10;7.90;99.90
4596;DHT22;2310;49.978;8.742;2023-03-14T20:04:14;8.00;99.90
4596;DHT22;2310;49.978;8.742;2023-03-14T20:08:15;8.10;99.90
4596;DHT22;2310;49.978;8.742;2023-03-14T20:12:16;8.10;99.90
4596;DHT22;2310;49.978;8.742;2023-03-14T20:16:17;8.00;99.90
4596;DHT22;2310;49.978;8.742;2023-03-14T20:20:19;8.00;99.90
4596;DHT22;2310;49.978;8.742;2023-03-14T20:24:21;8.00;99.90
4596;DHT22;2310;49.978;8.742;2023-03-14T20:28:22;8.10;99.90
4596;DHT22;2310;49.978;8.742;2023-03-14T20:32:24;8.00;99.90
4596;DHT22;2310;49.978;8.742;2023-03-14T20:36:25;7.80;99.90
4596;DHT22;2310;49.978;8.742;2023-03-14T20:40:27;7.80;99.90
4596;DHT22;2310;49.978;8.742;2023-03-14T20:44:28;7.80;99.90
4596;DHT22;2310;49.978;8.742;2023-03-14T20:48:30;7.90;99.90
4596;DHT22;2310;49.978;8.742;2023-03-14T20:52:31;8.00;99.90
4596;DHT22;2310;49.978;8.742;2023-03-14T20:56:32;8.10;99.90
4596;DHT22;2310;49.978;8.742;2023-03-14T21:00:34;8.10;99.90
4596;DHT22;2310;49.978;8.742;2023-03-14T21:04:35;8.00;99.90
4596;DHT22;2310;49.978;8.742;2023-03-14T21:08:36;8.00;99.90
4596;DHT22;2310;49.978;8.742;2023-03-14T21:12:39;8.00;99.90
4596;DHT22;2310;49.978;8.742;2023-03-14T21:16:41;8.00;99.90
4596;DHT22;2310;49.978;8.742;2023-03-14T21:20:42;7.90;99.90
4596;DHT22;2310;49.978;8.742;2023-03-14T21:24:44;8.00;99.90
4596;DHT22;2310;49.978;8.742;2023-03-14T21:28:46;7.90;99.90
4596;DHT22;2310;49.978;8.742;2023-03-14T21:32:47;7.70;99.90
4596;DHT22;2310;49.978;8.742;2023-03-14T21:36:49;7.50;99.90
4596;DHT22;2310;49.978;8.742;2023-03-14T21:40:55;7.30;99.90
4596;DHT22;2310;49.978;8.742;2023-03-14T21:44:57;7.30;99.90
4596;DHT22;2310;49.978;8.742;2023-03-14T21:48:58;7.50;99.90
4596;DHT22;2310;49.978;8.742;2023-03-14T21:53:00;7.60;99.90
4596;DHT22;2310;49.978;8.742;2023-03-14T21:57:03;7.70;99.90
4596;DHT22;2310;49.978;8.742;2023-03-14T22:01:05;7.80;99.90
4596;DHT22;2310;49.978;8.742;2023-03-14T22:05:12;7.60;99.90
4596;DHT22;2310;49.978;8.742;2023-03-14T22:09:14;7.80;99.90
4596;DHT22;2310;49.978;8.742;2023-03-14T22:13:15;7.90;99.90
4596;DHT22;2310;49.978;8.742;2023-03-14T22:17:17;8.00;99.90
4596;DHT22;2310;49.978;8.742;2023-03-14T22:21:20;8.00;99.90
4596;DHT22;2310;49.978;8.742;2023-03-14T22:25:21;7.90;99.90
4596;DHT22;2310;49.978;8.742;2023-03-14T22:29:23;7.90;99.90
4596;DHT22;2310;49.978;8.742;2023-03-14T22:33:24;8.00;99.90
4596;DHT22;2310;49.978;8.742;2023-03-14T22:37:25;8.00;99.90
4596;DHT22;2310;49.978;8.742;2023-03-14T22:41:26;7.90;99.90
4596;DHT22;2310;49.978;8.742;2023-03-14T22:45:27;7.80;99.90
4596;DHT22;2310;49.978;8.742;2023-03-14T22:49:30;7.70;99.90
4596;DHT22;2310;49.978;8.742;2023-03-14T22:53:31;7.70;99.90
4596;DHT22;2310;49.978;8.742;2023-03-14T22:57:32;7.80;99.90
4596;DHT22;2310;49.978;8.742;2023-03-14T23:01:34;7.80;99.90
4596;DHT22;2310;49.978;8.742;2023-03-14T23:05:35;7.70;99.90
4596;DHT22;2310;49.978;8.742;2023-03-14T23:09:39;7.70;99.90
4596;DHT22;2310;49.978;8.742;2023-03-14T23:13:41;7.60;99.90
4596;DHT22;2310;49.978;8.742;2023-03-14T23:17:43;7.50;99.90
4596;DHT22;2310;49.978;8.742;2023-03-14T23:21:44;7.50;99.90
4596;DHT22;2310;49.978;8.742;2023-03-14T23:25:45;7.50;99.90
4596;DHT22;2310;49.978;8.742;2023-03-14T23:29:49;7.50;99.90
4596;DHT22;2310;49.978;8.742;2023-03-14T23:33:51;7.40;99.90
4596;DHT22;2310;49.978;8.742;2023-03-14T23:37:52;7.30;99.90
4596;DHT22;2310;49.978;8.742;2023-03-14T23:41:53;7.30;99.90
4596;DHT22;2310;49.978;8.742;2023-03-14T23:45:55;7.30;99.90
4596;DHT22;2310;49.978;8.742;2023-03-14T23:49:56;7.30;99.90
4596;DHT22;2310;49.978;8.742;2023-03-14T23:53:58;7.20;99.90
4596;DHT22;2310;49.978;8.742;2023-03-14T23:57:59;7.10;99.90
